Darstellungsparameter: Aktuell verwendete Einstellungen:
Skalierung der Graphiken ... ?
xyx+y,   Skalierungsfaktor:      Skalierung: Modus: x, Faktor: 1
Darstellungszeitraum ... ?
Vom - - bis: - -   Zeitraum: 09.04.2010 - 15.04.2010
Min/Max/Avg-Anzeige ... ?
Zeige MMA aktuell
Zeige MMA Monat
Zeige MMA alles
Zeige --A aktuell
Zeige --A Monat
Zeige --A alles
Keine MMA-Anzeige
MMA:
Average (ber die Originaldaten)
MMA-Basis: 09.04.2010 - 15.04.2010
Quicknavigation für Darstellung... ?
Tage:      1T, 2T, 3T, 5T -1T -2T -3T -5T +1T +2T +3T +5T
Wochen: 1W, 2W, 3W -1W -2W -3W +1W +2W +3W
Monate: 1M, 3M, 6M -1M -3M -6M +1M +3M +6M
Jahre:    1J, 3J, 5J, 10J -1J -3J -5J -10J +1J +3J +5J +10J
Nutze für die Darstellung ... ?
Originaldaten oder Mittelwerte auf ...
Stundenbasis Tagesbasis Wochenbasis
Monatsbasis Jahresbasis      Datenbasis: Original-Daten
Darstellen als:
Statistik (Auto) Statistik J:M      Darstellung:
Zur Graphik,    zurück zur Übersicht aller Sensoren.
 
Tabellarische Datenbersicht: ?
 
Sensor: Nr:Datum:Temp:Abs-Feuchte:Windchill:Wind:
Aussen-T/F 1 09-04-2010 00:08:02 11.1 C 7.25 g/m*3 11.1 C 0 km/h
2 09-04-2010 00:20:02 11.1 C 7.25 g/m*3 11.1 C 0 km/h
3 09-04-2010 00:32:02 11.2 C 7.2 g/m*3 11.2 C 0 km/h
4 09-04-2010 00:44:02 11.1 C 7.15 g/m*3 11.1 C 0 km/h
5 09-04-2010 00:56:02 11 C 7.11 g/m*3 11 C 0 km/h
6 09-04-2010 01:08:02 11 C 7.11 g/m*3 11 C 0 km/h
7 09-04-2010 01:20:02 10.9 C 7.06 g/m*3 10.9 C 0 km/h
8 09-04-2010 01:32:03 10.8 C 6.92 g/m*3 10.8 C 0 km/h
9 09-04-2010 01:44:03 10.5 C 6.69 g/m*3 10.5 C 0 km/h
10 09-04-2010 01:56:03 10.3 C 6.51 g/m*3 10.3 C 0 km/h
11 09-04-2010 02:08:03 10.1 C 6.43 g/m*3 10.1 C 0 km/h
12 09-04-2010 02:20:03 9.7 C 6.55 g/m*3 9.7 C 0 km/h
13 09-04-2010 02:32:03 9.3 C 6.38 g/m*3 9.3 C 0 km/h
14 09-04-2010 02:44:03 9 C 6.44 g/m*3 9 C 0 km/h
15 09-04-2010 02:56:03 8.8 C 6.53 g/m*3 8.8 C 0 km/h
16 09-04-2010 03:08:03 8.7 C 6.66 g/m*3 8.7 C 0 km/h
17 09-04-2010 03:20:03 8.6 C 6.62 g/m*3 8.6 C 0 km/h
18 09-04-2010 03:32:03 8.4 C 6.62 g/m*3 8.4 C 0 km/h
19 09-04-2010 03:44:03 8.4 C 6.7 g/m*3 8.4 C 0 km/h
20 09-04-2010 03:56:03 8.2 C 6.62 g/m*3 8.2 C 0 km/h
21 09-04-2010 04:08:03 8 C 6.61 g/m*3 8 C 0 km/h
22 09-04-2010 04:20:03 7.8 C 6.61 g/m*3 7.8 C 0 km/h
23 09-04-2010 04:32:03 7.5 C 6.56 g/m*3 7.5 C 0 km/h
24 09-04-2010 04:44:03 7.4 C 6.6 g/m*3 7.4 C 0 km/h
25 09-04-2010 04:56:03 7.5 C 6.64 g/m*3 7.5 C 0 km/h
Sensor: Nr:Datum:Temp:Abs-Feuchte:Windchill:Wind:
Aussen-T/F 26 09-04-2010 05:08:03 7.8 C 6.86 g/m*3 7.8 C 0 km/h
27 09-04-2010 05:20:03 8 C 6.86 g/m*3 8 C 0 km/h
28 09-04-2010 05:32:04 8.1 C 6.82 g/m*3 8.1 C 0 km/h
29 09-04-2010 05:44:04 8 C 6.61 g/m*3 8 C 0 km/h
30 09-04-2010 05:56:04 7.8 C 6.61 g/m*3 7.8 C 0 km/h
31 09-04-2010 06:08:04 7.8 C 6.61 g/m*3 7.8 C 0 km/h
32 09-04-2010 06:20:04 7.8 C 6.61 g/m*3 7.8 C 0 km/h
33 09-04-2010 06:32:04 7.9 C 6.57 g/m*3 7.9 C 0 km/h
34 09-04-2010 06:44:04 7.6 C 6.44 g/m*3 7.6 C 0 km/h
35 09-04-2010 06:56:04 7.7 C 6.57 g/m*3 7.7 C 0 km/h
36 09-04-2010 07:08:02 7.7 C 6.49 g/m*3 7.7 C 0 km/h
37 09-04-2010 07:20:02 7.7 C 6.49 g/m*3 7.7 C 0 km/h
38 09-04-2010 07:32:02 7.9 C 6.57 g/m*3 7.9 C 0 km/h
39 09-04-2010 07:44:02 8.1 C 6.49 g/m*3 8.1 C 0 km/h
40 09-04-2010 07:56:02 8.1 C 6.32 g/m*3 8.1 C 0 km/h
41 09-04-2010 08:08:02 7.7 C 6.16 g/m*3 7.7 C 0 km/h
42 09-04-2010 08:20:02 7.4 C 6.12 g/m*3 7.4 C 0 km/h
43 09-04-2010 08:32:01 7.5 C 6.24 g/m*3 7.5 C 0 km/h
44 09-04-2010 08:44:01 7.7 C 6.32 g/m*3 7.7 C 0 km/h
45 09-04-2010 08:56:02 8 C 6.28 g/m*3 8 C 0 km/h
46 09-04-2010 09:08:01 7.9 C 6.24 g/m*3 7.9 C 0 km/h
47 09-04-2010 09:20:02 7.8 C 6.28 g/m*3 7.8 C 0 km/h
48 09-04-2010 09:32:01 8.5 C 6.4 g/m*3 8.5 C 0 km/h
49 09-04-2010 09:44:01 8.8 C 6.27 g/m*3 8.8 C 0 km/h
50 09-04-2010 09:56:02 8.6 C 6.1 g/m*3 8.6 C 0 km/h
Sensor: Nr:Datum:Temp:Abs-Feuchte:Windchill:Wind:
Aussen-T/F 51 09-04-2010 10:08:02 9 C 5.91 g/m*3 9 C 0 km/h
52 09-04-2010 10:20:02 9.5 C 6.1 g/m*3 9.5 C 0 km/h
53 09-04-2010 10:32:03 9.8 C 6.12 g/m*3 9.8 C 0 km/h
54 09-04-2010 10:44:03 10.2 C 5.9 g/m*3 10.2 C 0 km/h
55 09-04-2010 10:56:02 10.8 C 5.93 g/m*3 10.8 C 0 km/h
56 09-04-2010 11:08:01 11.2 C 5.68 g/m*3 11.2 C 0 km/h
57 09-04-2010 11:20:02 11.5 C 5.78 g/m*3 11.5 C 0 km/h
58 09-04-2010 11:32:02 11.9 C 5.72 g/m*3 11.9 C 0 km/h
59 09-04-2010 11:44:02 12.5 C 5.61 g/m*3 12.5 C 0 km/h
60 09-04-2010 11:56:02 13 C 5.56 g/m*3 13 C 0 km/h
61 09-04-2010 12:08:02 13.5 C 5.26 g/m*3 13.5 C 0 km/h
62 09-04-2010 12:20:02 13.8 C 5.36 g/m*3 13.8 C 0 km/h
63 09-04-2010 12:32:02 14.2 C 5.13 g/m*3 14.2 C 0 km/h
64 09-04-2010 12:44:02 14.7 C 5.16 g/m*3 14.7 C 0 km/h
65 09-04-2010 12:56:02 13.6 C 4.71 g/m*3 13.6 C 0 km/h
66 09-04-2010 13:08:02 14.4 C 4.7 g/m*3 14.4 C 0 km/h
67 09-04-2010 13:20:01 14.6 C 4.63 g/m*3 14.6 C 0 km/h
68 09-04-2010 13:32:02 14.7 C 4.66 g/m*3 14.7 C 0 km/h
69 09-04-2010 13:44:02 14.7 C 4.66 g/m*3 14.7 C 0 km/h
70 09-04-2010 13:56:02 15.8 C 4.58 g/m*3 15.8 C 0 km/h
71 09-04-2010 14:08:02 15.6 C 4.52 g/m*3 15.6 C 0 km/h
72 09-04-2010 14:20:02 15.8 C 4.31 g/m*3 15.8 C 0 km/h
73 09-04-2010 14:32:02 15.8 C 3.63 g/m*3 15.8 C 0 km/h
74 09-04-2010 14:44:02 15.9 C 4.06 g/m*3 15.9 C 0 km/h
75 09-04-2010 14:56:02 16 C 4.09 g/m*3 16 C 0 km/h
Sensor: Nr:Datum:Temp:Abs-Feuchte:Windchill:Wind:
Aussen-T/F 76 09-04-2010 15:08:02 16.7 C 3.98 g/m*3 16.7 C 0 km/h
77 09-04-2010 15:20:02 15.7 C 4.01 g/m*3 15.7 C 0 km/h
78 09-04-2010 15:32:02 15.4 C 4.07 g/m*3 15.4 C 0 km/h
79 09-04-2010 15:44:02 15.2 C 4.02 g/m*3 15.2 C 0 km/h
80 09-04-2010 15:56:01 15.4 C 4.2 g/m*3 15.4 C 0 km/h
81 09-04-2010 16:08:01 15.6 C 4.26 g/m*3 15.6 C 0 km/h
82 09-04-2010 16:20:01 15.9 C 4.2 g/m*3 15.9 C 0 km/h
83 09-04-2010 16:32:01 15.6 C 4.26 g/m*3 15.6 C 0 km/h
84 09-04-2010 16:44:01 15.5 C 4.1 g/m*3 15.5 C 0 km/h
85 09-04-2010 16:56:01 15.4 C 4.34 g/m*3 15.4 C 0 km/h
86 09-04-2010 17:08:01 15.7 C 4.28 g/m*3 15.7 C 0 km/h
87 09-04-2010 17:20:02 15.3 C 4.18 g/m*3 15.3 C 0 km/h
88 09-04-2010 17:32:01 15.1 C 4.26 g/m*3 15.1 C 0 km/h
89 09-04-2010 17:44:01 15.3 C 4.31 g/m*3 15.3 C 0 km/h
90 09-04-2010 17:56:01 15.1 C 4.39 g/m*3 15.1 C 0 km/h
91 09-04-2010 18:08:01 14.8 C 4.43 g/m*3 14.8 C 0 km/h
92 09-04-2010 18:20:02 14.8 C 4.56 g/m*3 14.8 C 0 km/h
93 09-04-2010 18:32:01 14.7 C 4.53 g/m*3 14.7 C 0 km/h
94 09-04-2010 18:44:01 15 C 4.49 g/m*3 15 C 0 km/h
95 09-04-2010 18:56:03 15.7 C 4.55 g/m*3 15.7 C 0 km/h
96 09-04-2010 19:08:02 15.2 C 4.54 g/m*3 15.2 C 0 km/h
97 09-04-2010 19:20:02 14.4 C 4.45 g/m*3 14.4 C 0 km/h
98 09-04-2010 19:32:02 14.2 C 4.52 g/m*3 14.2 C 0 km/h
99 09-04-2010 19:44:02 14 C 4.82 g/m*3 14 C 0 km/h
100 09-04-2010 19:56:02 14 C 4.95 g/m*3 14 C 0 km/h
Sensor: Nr:Datum:Temp:Abs-Feuchte:Windchill:Wind:
Aussen-T/F 101 09-04-2010 20:08:02 13.4 C 5 g/m*3 13.4 C 0 km/h
102 09-04-2010 20:20:02 13.1 C 5.14 g/m*3 13.1 C 0 km/h
103 09-04-2010 20:32:01 13 C 5.1 g/m*3 13 C 0 km/h
104 09-04-2010 20:44:01 12.6 C 5.2 g/m*3 12.6 C 0 km/h
105 09-04-2010 20:56:02 12.4 C 5.35 g/m*3 12.4 C 0 km/h
106 09-04-2010 21:08:01 11.9 C 5.4 g/m*3 11.9 C 0 km/h
107 09-04-2010 21:20:02 11.6 C 5.4 g/m*3 11.6 C 0 km/h
108 09-04-2010 21:32:02 11.4 C 5.44 g/m*3 11.4 C 0 km/h
109 09-04-2010 21:44:02 11.4 C 5.54 g/m*3 11.4 C 0 km/h
110 09-04-2010 21:56:02 11.4 C 5.65 g/m*3 11.4 C 0 km/h
111 09-04-2010 22:09:03 11.2 C 5.68 g/m*3 11.2 C 0 km/h
112 09-04-2010 22:21:03 11.3 C 5.71 g/m*3 11.3 C 0 km/h
113 09-04-2010 22:33:03 11.2 C 5.68 g/m*3 11.2 C 0 km/h
114 09-04-2010 22:45:03 11 C 5.61 g/m*3 11 C 0 km/h
115 09-04-2010 22:57:03 11 C 5.71 g/m*3 11 C 0 km/h
116 09-04-2010 23:09:03 11.1 C 5.74 g/m*3 11.1 C 0 km/h
117 09-04-2010 23:21:03 11.1 C 5.74 g/m*3 11.1 C 0 km/h
118 09-04-2010 23:33:03 11.1 C 5.74 g/m*3 11.1 C 0 km/h
119 09-04-2010 23:45:03 11.1 C 5.74 g/m*3 11.1 C 0 km/h
120 09-04-2010 23:57:04 11.1 C 5.74 g/m*3 11.1 C 0 km/h
121 10-04-2010 00:09:04 11.1 C 5.84 g/m*3 11.1 C 0 km/h
122 10-04-2010 00:21:04 11 C 5.81 g/m*3 11 C 0 km/h
123 10-04-2010 00:33:04 10.6 C 5.86 g/m*3 10.6 C 0 km/h
124 10-04-2010 00:45:04 10.1 C 5.77 g/m*3 10.1 C 0 km/h
125 10-04-2010 00:57:04 9.7 C 5.81 g/m*3 9.7 C 0 km/h
Sensor: Nr:Datum:Temp:Abs-Feuchte:Windchill:Wind:
Aussen-T/F 126 10-04-2010 01:09:04 9.6 C 5.86 g/m*3 9.6 C 0 km/h
127 10-04-2010 01:21:04 9.6 C 5.86 g/m*3 9.6 C 0 km/h
128 10-04-2010 01:33:04 9.5 C 6.01 g/m*3 9.5 C 0 km/h
129 10-04-2010 01:45:04 9.4 C 6.06 g/m*3 9.4 C 0 km/h
130 10-04-2010 01:57:04 9.5 C 6.1 g/m*3 9.5 C 0 km/h
131 10-04-2010 02:09:04 9.5 C 6.01 g/m*3 9.5 C 0 km/h
132 10-04-2010 02:21:04 9.4 C 5.97 g/m*3 9.4 C 0 km/h
133 10-04-2010 02:33:04 9.3 C 5.93 g/m*3 9.3 C 0 km/h
134 10-04-2010 02:45:04 9.3 C 5.93 g/m*3 9.3 C 0 km/h
135 10-04-2010 02:57:04 9.4 C 5.97 g/m*3 9.4 C 0 km/h
136 10-04-2010 03:09:04 9.5 C 6.01 g/m*3 9.5 C 0 km/h
137 10-04-2010 03:21:04 9.4 C 5.97 g/m*3 9.4 C 0 km/h
138 10-04-2010 03:33:04 9.6 C 6.14 g/m*3 9.6 C 0 km/h
139 10-04-2010 03:45:04 9.8 C 6.12 g/m*3 9.8 C 0 km/h
140 10-04-2010 03:57:05 10 C 5.92 g/m*3 10 C 0 km/h
141 10-04-2010 04:09:05 10 C 5.92 g/m*3 10 C 0 km/h
142 10-04-2010 04:21:05 10 C 5.92 g/m*3 10 C 0 km/h
143 10-04-2010 04:33:05 10 C 5.92 g/m*3 10 C 0 km/h
144 10-04-2010 04:45:05 9.8 C 5.94 g/m*3 9.8 C 0 km/h
145 10-04-2010 04:57:05 9.8 C 5.94 g/m*3 9.8 C 0 km/h
146 10-04-2010 05:09:05 9.7 C 5.9 g/m*3 9.7 C 0 km/h
147 10-04-2010 05:21:05 9.7 C 5.9 g/m*3 9.7 C 0 km/h
148 10-04-2010 05:33:05 9.6 C 5.86 g/m*3 9.6 C 0 km/h
149 10-04-2010 05:45:05 9.5 C 5.83 g/m*3 9.5 C 0 km/h
150 10-04-2010 05:57:05 9.5 C 5.83 g/m*3 9.5 C 0 km/h
Sensor: Nr:Datum:Temp:Abs-Feuchte:Windchill:Wind:
Aussen-T/F 151 10-04-2010 06:09:05 9.4 C 5.88 g/m*3 9.4 C 0 km/h
152 10-04-2010 06:21:05 9.3 C 5.84 g/m*3 9.3 C 0 km/h
153 10-04-2010 06:33:05 9.3 C 5.84 g/m*3 9.3 C 0 km/h
154 10-04-2010 06:45:05 9.2 C 5.89 g/m*3 9.2 C 0 km/h
155 10-04-2010 06:57:05 9.1 C 5.86 g/m*3 9.1 C 0 km/h
156 10-04-2010 07:09:05 9.1 C 5.86 g/m*3 9.1 C 0 km/h
157 10-04-2010 07:21:05 9.1 C 5.94 g/m*3 9.1 C 0 km/h
158 10-04-2010 07:33:05 9 C 5.91 g/m*3 9 C 0 km/h
159 10-04-2010 07:45:05 8.9 C 6.04 g/m*3 8.9 C 0 km/h
160 10-04-2010 07:57:05 9 C 5.99 g/m*3 9 C 0 km/h
161 10-04-2010 08:09:03 9 C 5.99 g/m*3 9 C 0 km/h
162 10-04-2010 08:21:03 8.9 C 6.04 g/m*3 8.9 C 0 km/h
163 10-04-2010 08:33:04 9 C 5.99 g/m*3 9 C 0 km/h
164 10-04-2010 08:45:02 9.1 C 5.94 g/m*3 9.1 C 0 km/h
165 10-04-2010 08:57:02 9.2 C 5.98 g/m*3 9.2 C 0 km/h
166 10-04-2010 09:09:02 9.5 C 5.92 g/m*3 9.5 C 0 km/h
167 10-04-2010 09:21:02 9.7 C 5.9 g/m*3 9.7 C 0 km/h
168 10-04-2010 09:33:02 9.8 C 5.75 g/m*3 9.8 C 0 km/h
169 10-04-2010 09:45:02 10 C 5.73 g/m*3 10 C 0 km/h
170 10-04-2010 09:57:02 10.1 C 5.39 g/m*3 10.1 C 0 km/h
171 10-04-2010 10:09:01 10.2 C 4.95 g/m*3 10.2 C 0 km/h
172 10-04-2010 10:21:01 10.6 C 4.59 g/m*3 10.6 C 0 km/h
173 10-04-2010 10:33:02 10.3 C 4.41 g/m*3 10.3 C 0 km/h
174 10-04-2010 10:45:02 10.8 C 4.35 g/m*3 10.8 C 0 km/h
175 10-04-2010 10:57:02 11.1 C 4.23 g/m*3 11.1 C 0 km/h
Sensor: Nr:Datum:Temp:Abs-Feuchte:Windchill:Wind:
Aussen-T/F 176 10-04-2010 11:09:02 11.5 C 4.13 g/m*3 11.5 C 0 km/h
177 10-04-2010 11:21:02 11.4 C 4 g/m*3 11.4 C 0 km/h
178 10-04-2010 11:33:02 11 C 3.9 g/m*3 11 C 0 km/h
179 10-04-2010 11:45:02 11.2 C 3.95 g/m*3 11.2 C 0 km/h
180 10-04-2010 11:57:02 12 C 3.94 g/m*3 12 C 0 km/h
181 10-04-2010 12:09:02 11.9 C 3.71 g/m*3 11.9 C 0 km/h
182 10-04-2010 12:21:02 12.6 C 3.87 g/m*3 12.6 C 0 km/h
183 10-04-2010 12:33:02 12.6 C 3.54 g/m*3 12.6 C 0 km/h
184 10-04-2010 12:45:01 12.5 C 3.52 g/m*3 12.5 C 0 km/h
185 10-04-2010 12:57:01 12.9 C 3.49 g/m*3 12.9 C 0 km/h
186 10-04-2010 13:09:02 13.1 C 3.42 g/m*3 13.1 C 0 km/h
187 10-04-2010 13:21:01 13 C 3.18 g/m*3 13 C 0 km/h
188 10-04-2010 13:33:01 14 C 3.38 g/m*3 14 C 0 km/h
189 10-04-2010 13:45:01 14.3 C 3.32 g/m*3 14.3 C 0 km/h
190 10-04-2010 13:57:01 14.1 C 3.16 g/m*3 14.1 C 0 km/h
191 10-04-2010 14:09:02 13.6 C 3.18 g/m*3 13.6 C 0 km/h
192 10-04-2010 14:21:01 14.9 C 3.19 g/m*3 14.9 C 0 km/h
193 10-04-2010 14:33:01 15 C 3.21 g/m*3 15 C 0 km/h
194 10-04-2010 14:45:01 14.7 C 2.77 g/m*3 14.7 C 0 km/h
195 10-04-2010 14:57:01 15.2 C 2.86 g/m*3 15.2 C 0 km/h
196 10-04-2010 15:09:02 15.7 C 3.08 g/m*3 15.7 C 0 km/h
197 10-04-2010 15:21:02 15 C 2.56 g/m*3 15 C 0 km/h
198 10-04-2010 15:33:01 16.3 C 2.77 g/m*3 16.3 C 0 km/h
199 10-04-2010 15:45:01 15.4 C 2.63 g/m*3 15.4 C 0 km/h
200 10-04-2010 15:57:01 16.9 C 2.88 g/m*3 16.9 C 0 km/h
Sensor: Nr:Datum:Temp:Abs-Feuchte:Windchill:Wind:
Aussen-T/F 201 10-04-2010 16:09:02 15.9 C 2.71 g/m*3 15.9 C 0 km/h
202 10-04-2010 16:21:02 15.7 C 2.68 g/m*3 15.7 C 0 km/h
203 10-04-2010 16:33:01 16.4 C 2.79 g/m*3 16.4 C 0 km/h
204 10-04-2010 16:45:02 17.3 C 2.95 g/m*3 17.3 C 0 km/h
205 10-04-2010 16:57:02 15.3 C 2.61 g/m*3 15.3 C 0 km/h
206 10-04-2010 17:09:01 16.3 C 2.77 g/m*3 16.3 C 0 km/h
207 10-04-2010 17:21:02 17 C 2.89 g/m*3 17 C 0 km/h
208 10-04-2010 17:33:01 15.8 C 2.69 g/m*3 15.8 C 0 km/h
209 10-04-2010 17:45:03 15.9 C 2.71 g/m*3 15.9 C 0 km/h
210 10-04-2010 17:57:03 16.2 C 2.76 g/m*3 16.2 C 0 km/h
211 10-04-2010 18:09:02 16.1 C 2.74 g/m*3 16.1 C 0 km/h
212 10-04-2010 18:21:02 16.5 C 2.81 g/m*3 16.5 C 0 km/h
213 10-04-2010 18:33:02 16.4 C 2.79 g/m*3 16.4 C 0 km/h
214 10-04-2010 18:45:02 14.9 C 2.8 g/m*3 14.9 C 0 km/h
215 10-04-2010 18:57:02 15.4 C 2.76 g/m*3 15.4 C 0 km/h
216 10-04-2010 19:09:01 14.7 C 3.02 g/m*3 14.7 C 0 km/h
217 10-04-2010 19:21:02 14.4 C 3.09 g/m*3 14.4 C 0 km/h
218 10-04-2010 19:33:02 13.7 C 3.2 g/m*3 13.7 C 0 km/h
219 10-04-2010 19:45:02 12.9 C 3.16 g/m*3 12.9 C 0 km/h
220 10-04-2010 19:57:02 12.3 C 3.15 g/m*3 12.3 C 0 km/h
221 10-04-2010 20:09:01 11.5 C 3.2 g/m*3 11.5 C 0 km/h
222 10-04-2010 20:21:01 11.2 C 3.34 g/m*3 11.2 C 0 km/h
223 10-04-2010 20:33:02 10.8 C 3.46 g/m*3 10.8 C 0 km/h
224 10-04-2010 20:45:02 10.6 C 3.51 g/m*3 10.6 C 0 km/h
225 10-04-2010 20:57:02 10.4 C 3.47 g/m*3 10.4 C 0 km/h
Sensor: Nr:Datum:Temp:Abs-Feuchte:Windchill:Wind:
Aussen-T/F 226 10-04-2010 21:09:02 10.2 C 3.52 g/m*3 10.2 C 0 km/h
227 10-04-2010 21:21:02 10 C 3.48 g/m*3 10 C 0 km/h
228 10-04-2010 21:33:02 9.8 C 3.62 g/m*3 9.8 C 0 km/h
229 10-04-2010 21:45:02 9.6 C 3.66 g/m*3 9.6 C 0 km/h
230 10-04-2010 21:57:02 9.6 C 3.66 g/m*3 9.6 C 0 km/h
231 10-04-2010 22:09:02 9.2 C 3.66 g/m*3 9.2 C 0 km/h
232 10-04-2010 22:22:02 8.7 C 3.72 g/m*3 8.7 C 0 km/h
233 10-04-2010 22:34:02 8.3 C 3.71 g/m*3 8.3 C 0 km/h
234 10-04-2010 22:46:02 8 C 3.72 g/m*3 8 C 0 km/h
235 10-04-2010 22:58:02 7.6 C 3.79 g/m*3 7.6 C 0 km/h
236 10-04-2010 23:10:02 7.5 C 3.84 g/m*3 7.5 C 0 km/h
237 10-04-2010 23:22:02 7.3 C 3.87 g/m*3 7.3 C 0 km/h
238 10-04-2010 23:34:02 7.1 C 3.9 g/m*3 7.1 C 0 km/h
239 10-04-2010 23:46:02 7.1 C 3.98 g/m*3 7.1 C 0 km/h
240 10-04-2010 23:58:02 6.9 C 4 g/m*3 6.9 C 0 km/h
241 11-04-2010 00:10:02 6.7 C 4.1 g/m*3 6.7 C 0 km/h
242 11-04-2010 00:22:03 6.6 C 4.15 g/m*3 6.6 C 0 km/h
243 11-04-2010 00:34:03 6.6 C 4.23 g/m*3 6.6 C 0 km/h
244 11-04-2010 00:46:03 6.5 C 4.2 g/m*3 6.5 C 0 km/h
245 11-04-2010 00:58:03 6.5 C 4.2 g/m*3 6.5 C 0 km/h
246 11-04-2010 01:10:03 6.6 C 4.3 g/m*3 6.6 C 0 km/h
247 11-04-2010 01:22:03 6.2 C 4.27 g/m*3 6.2 C 0 km/h
248 11-04-2010 01:34:03 6.1 C 4.31 g/m*3 6.1 C 0 km/h
249 11-04-2010 01:46:03 5.9 C 4.4 g/m*3 5.9 C 0 km/h
250 11-04-2010 01:58:03 5.8 C 4.44 g/m*3 5.8 C 0 km/h
Sensor: Nr:Datum:Temp:Abs-Feuchte:Windchill:Wind:
Aussen-T/F 251 11-04-2010 02:10:03 5.6 C 4.45 g/m*3 5.6 C 0 km/h
252 11-04-2010 02:22:03 5.4 C 4.4 g/m*3 5.4 C 0 km/h
253 11-04-2010 02:34:03 5.1 C 4.45 g/m*3 5.1 C 0 km/h
254 11-04-2010 02:46:03 5 C 4.48 g/m*3 5 C 0 km/h
255 11-04-2010 02:58:03 4.8 C 4.49 g/m*3 4.8 C 0 km/h
256 11-04-2010 03:10:03 4.9 C 4.66 g/m*3 4.9 C 0 km/h
257 11-04-2010 03:22:03 5 C 4.55 g/m*3 5 C 0 km/h
258 11-04-2010 03:34:03 4.7 C 4.53 g/m*3 4.7 C 0 km/h
259 11-04-2010 03:46:03 4.8 C 4.63 g/m*3 4.8 C 0 km/h
260 11-04-2010 03:58:03 4.8 C 4.69 g/m*3 4.8 C 0 km/h
261 11-04-2010 04:10:03 4.8 C 4.69 g/m*3 4.8 C 0 km/h
262 11-04-2010 04:22:03 5 C 4.69 g/m*3 5 C 0 km/h
263 11-04-2010 04:34:04 5 C 4.69 g/m*3 5 C 0 km/h
264 11-04-2010 04:46:04 4.9 C 4.73 g/m*3 4.9 C 0 km/h
265 11-04-2010 04:58:04 4.7 C 4.73 g/m*3 4.7 C 0 km/h
266 11-04-2010 05:10:04 4.6 C 4.7 g/m*3 4.6 C 0 km/h
267 11-04-2010 05:22:04 4.5 C 4.67 g/m*3 4.5 C 0 km/h
268 11-04-2010 05:34:04 4.3 C 4.67 g/m*3 4.3 C 0 km/h
269 11-04-2010 05:46:04 4.3 C 4.74 g/m*3 4.3 C 0 km/h
270 11-04-2010 05:58:04 4.2 C 4.77 g/m*3 4.2 C 0 km/h
271 11-04-2010 06:10:04 4.1 C 4.74 g/m*3 4.1 C 0 km/h
272 11-04-2010 06:22:04 4.2 C 4.77 g/m*3 4.2 C 0 km/h
273 11-04-2010 06:34:04 4.3 C 4.8 g/m*3 4.3 C 0 km/h
274 11-04-2010 06:46:04 4.4 C 4.77 g/m*3 4.4 C 0 km/h
275 11-04-2010 06:58:04 4.6 C 4.83 g/m*3 4.6 C 0 km/h
Sensor: Nr:Datum:Temp:Abs-Feuchte:Windchill:Wind:
Aussen-T/F 276 11-04-2010 07:10:04 4.5 C 4.73 g/m*3 4.5 C 0 km/h
277 11-04-2010 07:22:04 4.5 C 4.73 g/m*3 4.5 C 0 km/h
278 11-04-2010 07:34:04 4.7 C 4.8 g/m*3 4.7 C 0 km/h
279 11-04-2010 07:46:04 4.9 C 4.79 g/m*3 4.9 C 0 km/h
280 11-04-2010 07:58:04 5.1 C 4.79 g/m*3 5.1 C 0 km/h
281 11-04-2010 08:10:01 5.2 C 4.75 g/m*3 5.2 C 0 km/h
282 11-04-2010 08:22:02 5.4 C 4.81 g/m*3 5.4 C 0 km/h
283 11-04-2010 08:34:02 5.8 C 4.87 g/m*3 5.8 C 0 km/h
284 11-04-2010 08:46:02 5.6 C 4.74 g/m*3 5.6 C 0 km/h
285 11-04-2010 08:58:02 6.2 C 4.78 g/m*3 6.2 C 0 km/h
286 11-04-2010 09:10:02 6.3 C 4.74 g/m*3 6.3 C 0 km/h
287 11-04-2010 09:22:02 6.7 C 4.79 g/m*3 6.7 C 0 km/h
288 11-04-2010 09:34:03 6.8 C 4.74 g/m*3 6.8 C 0 km/h
289 11-04-2010 09:46:02 7.2 C 4.71 g/m*3 7.2 C 0 km/h
290 11-04-2010 09:58:02 7.5 C 4.8 g/m*3 7.5 C 0 km/h
291 11-04-2010 10:10:02 7.6 C 4.67 g/m*3 7.6 C 0 km/h
292 11-04-2010 10:22:01 7.7 C 4.7 g/m*3 7.7 C 0 km/h
293 11-04-2010 10:34:02 7.2 C 4.63 g/m*3 7.2 C 0 km/h
294 11-04-2010 10:46:02 7.4 C 4.77 g/m*3 7.4 C 0 km/h
295 11-04-2010 10:58:02 7.9 C 4.76 g/m*3 7.9 C 0 km/h
296 11-04-2010 11:10:02 8.3 C 4.64 g/m*3 8.3 C 0 km/h
297 11-04-2010 11:22:02 8.7 C 4.58 g/m*3 8.7 C 0 km/h
298 11-04-2010 11:34:02 9 C 4.41 g/m*3 9 C 0 km/h
299 11-04-2010 11:46:02 9.3 C 4.4 g/m*3 9.3 C 0 km/h
300 11-04-2010 11:58:02 10 C 4.32 g/m*3 10 C 0 km/h
Sensor: Nr:Datum:Temp:Abs-Feuchte:Windchill:Wind:
Aussen-T/F 301 11-04-2010 12:10:02 10.1 C 3.69 g/m*3 10.1 C 0 km/h
302 11-04-2010 12:22:02 10.5 C 3.49 g/m*3 10.5 C 0 km/h
303 11-04-2010 12:34:02 11.1 C 3.32 g/m*3 11.1 C 0 km/h
304 11-04-2010 12:46:02 11.5 C 3.41 g/m*3 11.5 C 0 km/h
305 11-04-2010 12:58:02 11.6 C 3.22 g/m*3 11.6 C 0 km/h
306 11-04-2010 13:10:02 10.8 C 3.36 g/m*3 10.8 C 0 km/h
307 11-04-2010 13:22:02 11.1 C 3.22 g/m*3 11.1 C 0 km/h
308 11-04-2010 13:34:02 12.3 C 3.15 g/m*3 12.3 C 0 km/h
309 11-04-2010 13:46:01 12.8 C 3.02 g/m*3 12.8 C 0 km/h
310 11-04-2010 13:58:01 11.7 C 2.82 g/m*3 11.7 C 0 km/h
311 11-04-2010 14:10:01 11.8 C 3.05 g/m*3 11.8 C 0 km/h
312 11-04-2010 14:22:02 12.2 C 2.81 g/m*3 12.2 C 0 km/h
313 11-04-2010 14:34:01 12.3 C 2.82 g/m*3 12.3 C 0 km/h
314 11-04-2010 14:46:01 12 C 2.88 g/m*3 12 C 0 km/h
315 11-04-2010 14:58:01 11.7 C 3.14 g/m*3 11.7 C 0 km/h
316 11-04-2010 15:10:01 10.3 C 2.97 g/m*3 10.3 C 0 km/h
317 11-04-2010 15:22:02 8.3 C 4.8 g/m*3 8.3 C 0 km/h
318 11-04-2010 15:34:01 8.4 C 5.17 g/m*3 8.4 C 0 km/h
319 11-04-2010 15:46:03 10.8 C 5.04 g/m*3 10.8 C 0 km/h
320 11-04-2010 15:58:03 11.3 C 4.28 g/m*3 11.3 C 0 km/h
321 11-04-2010 16:10:02 12.8 C 4.03 g/m*3 12.8 C 0 km/h
322 11-04-2010 16:22:02 12.9 C 3.49 g/m*3 12.9 C 0 km/h
323 11-04-2010 16:34:02 13.9 C 3.6 g/m*3 13.9 C 0 km/h
324 11-04-2010 16:46:02 13.5 C 3.16 g/m*3 13.5 C 0 km/h
325 11-04-2010 16:58:02 11.2 C 3.75 g/m*3 11.2 C 0 km/h
Sensor: Nr:Datum:Temp:Abs-Feuchte:Windchill:Wind:
Aussen-T/F 326 11-04-2010 17:10:02 9.6 C 4.67 g/m*3 9.6 C 0 km/h
327 11-04-2010 17:22:02 11.4 C 4.52 g/m*3 11.4 C 0 km/h
328 11-04-2010 17:34:02 11.8 C 4 g/m*3 11.8 C 0 km/h
329 11-04-2010 17:46:02 13.4 C 4.07 g/m*3 13.4 C 0 km/h
330 11-04-2010 17:58:02 12.9 C 3.72 g/m*3 12.9 C 0 km/h
331 11-04-2010 18:10:02 12.8 C 3.92 g/m*3 12.8 C 0 km/h
332 11-04-2010 18:22:02 11.8 C 2.95 g/m*3 11.8 C 0 km/h
333 11-04-2010 18:34:01 10.9 C 3.08 g/m*3 10.9 C 0 km/h
334 11-04-2010 18:46:02 11.2 C 3.24 g/m*3 11.2 C 0 km/h
335 11-04-2010 18:58:02 12.1 C 3.22 g/m*3 12.1 C 0 km/h
336 11-04-2010 19:10:01 12.1 C 3.22 g/m*3 12.1 C 0 km/h
337 11-04-2010 19:22:02 10.7 C 3.63 g/m*3 10.7 C 0 km/h
338 11-04-2010 19:34:01 10.4 C 3.86 g/m*3 10.4 C 0 km/h
339 11-04-2010 19:46:03 9.9 C 3.92 g/m*3 9.9 C 0 km/h
340 11-04-2010 19:58:03 9.5 C 3.82 g/m*3 9.5 C 0 km/h
341 11-04-2010 20:10:02 9.1 C 3.9 g/m*3 9.1 C 0 km/h
342 11-04-2010 20:22:02 8.6 C 4.04 g/m*3 8.6 C 0 km/h
343 11-04-2010 20:34:03 8.2 C 4.1 g/m*3 8.2 C 0 km/h
344 11-04-2010 20:46:02 8 C 4.13 g/m*3 8 C 0 km/h
345 11-04-2010 20:58:02 7.7 C 4.22 g/m*3 7.7 C 0 km/h
346 11-04-2010 21:10:02 7.5 C 4.16 g/m*3 7.5 C 0 km/h
347 11-04-2010 21:22:02 7.3 C 4.11 g/m*3 7.3 C 0 km/h
348 11-04-2010 21:34:02 7.1 C 4.13 g/m*3 7.1 C 0 km/h
349 11-04-2010 21:46:02 6.9 C 4.16 g/m*3 6.9 C 0 km/h
350 11-04-2010 21:58:03 6.7 C 4.1 g/m*3 6.7 C 0 km/h
Sensor: Nr:Datum:Temp:Abs-Feuchte:Windchill:Wind:
Aussen-T/F 351 11-04-2010 22:10:01 6.5 C 4.12 g/m*3 6.5 C 0 km/h
352 11-04-2010 22:22:01 6.3 C 4.15 g/m*3 6.3 C 0 km/h
353 11-04-2010 22:35:02 6.2 C 4.19 g/m*3 6.2 C 0 km/h
354 11-04-2010 22:47:02 6.1 C 4.16 g/m*3 6.1 C 0 km/h
355 11-04-2010 22:59:02 5.9 C 4.25 g/m*3 5.9 C 0 km/h
356 11-04-2010 23:11:02 5.8 C 4.3 g/m*3 5.8 C 0 km/h
357 11-04-2010 23:23:02 5.6 C 4.24 g/m*3 5.6 C 0 km/h
358 11-04-2010 23:35:03 5.5 C 4.28 g/m*3 5.5 C 0 km/h
359 11-04-2010 23:47:03 5.4 C 4.33 g/m*3 5.4 C 0 km/h
360 11-04-2010 23:59:03 5.2 C 4.27 g/m*3 5.2 C 0 km/h
361 12-04-2010 00:11:03 5.2 C 4.27 g/m*3 5.2 C 0 km/h
362 12-04-2010 00:23:03 5.1 C 4.31 g/m*3 5.1 C 0 km/h
363 12-04-2010 00:35:03 5.1 C 4.38 g/m*3 5.1 C 0 km/h
364 12-04-2010 00:47:03 5 C 4.42 g/m*3 5 C 0 km/h
365 12-04-2010 00:59:03 4.8 C 4.43 g/m*3 4.8 C 0 km/h
366 12-04-2010 01:11:03 4.8 C 4.56 g/m*3 4.8 C 0 km/h
367 12-04-2010 01:23:03 5.1 C 4.65 g/m*3 5.1 C 0 km/h
368 12-04-2010 01:35:03 5.3 C 4.64 g/m*3 5.3 C 0 km/h
369 12-04-2010 01:47:03 5.5 C 4.71 g/m*3 5.5 C 0 km/h
370 12-04-2010 01:59:03 5.5 C 4.64 g/m*3 5.5 C 0 km/h
371 12-04-2010 02:11:03 5.2 C 4.54 g/m*3 5.2 C 0 km/h
372 12-04-2010 02:23:03 5.1 C 4.51 g/m*3 5.1 C 0 km/h
373 12-04-2010 02:35:03 5.2 C 4.54 g/m*3 5.2 C 0 km/h
374 12-04-2010 02:47:03 5.4 C 4.6 g/m*3 5.4 C 0 km/h
375 12-04-2010 02:59:03 5.5 C 4.57 g/m*3 5.5 C 0 km/h
Sensor: Nr:Datum:Temp:Abs-Feuchte:Windchill:Wind:
Aussen-T/F 376 12-04-2010 03:11:03 5.7 C 4.48 g/m*3 5.7 C 0 km/h
377 12-04-2010 03:23:03 5.8 C 4.51 g/m*3 5.8 C 0 km/h
378 12-04-2010 03:35:04 5.6 C 4.45 g/m*3 5.6 C 0 km/h
379 12-04-2010 03:47:04 5.4 C 4.33 g/m*3 5.4 C 0 km/h
380 12-04-2010 03:59:04 5.4 C 4.33 g/m*3 5.4 C 0 km/h
381 12-04-2010 04:11:04 5.5 C 4.35 g/m*3 5.5 C 0 km/h
382 12-04-2010 04:23:04 5.6 C 4.38 g/m*3 5.6 C 0 km/h
383 12-04-2010 04:35:04 5.7 C 4.41 g/m*3 5.7 C 0 km/h
384 12-04-2010 04:47:04 5.7 C 4.41 g/m*3 5.7 C 0 km/h
385 12-04-2010 04:59:04 5.7 C 4.48 g/m*3 5.7 C 0 km/h
386 12-04-2010 05:11:04 5.7 C 4.48 g/m*3 5.7 C 0 km/h
387 12-04-2010 05:23:04 5.6 C 4.6 g/m*3 5.6 C 0 km/h
388 12-04-2010 05:35:04 5.6 C 4.67 g/m*3 5.6 C 0 km/h
389 12-04-2010 05:47:04 5.7 C 4.63 g/m*3 5.7 C 0 km/h
390 12-04-2010 05:59:04 5.6 C 4.67 g/m*3 5.6 C 0 km/h
391 12-04-2010 06:11:04 5.6 C 4.67 g/m*3 5.6 C 0 km/h
392 12-04-2010 06:23:04 5.7 C 4.7 g/m*3 5.7 C 0 km/h
393 12-04-2010 06:35:04 5.7 C 4.7 g/m*3 5.7 C 0 km/h
394 12-04-2010 06:47:04 5.7 C 4.7 g/m*3 5.7 C 0 km/h
395 12-04-2010 06:59:04 5.7 C 4.7 g/m*3 5.7 C 0 km/h
396 12-04-2010 07:11:03 5.8 C 4.8 g/m*3 5.8 C 0 km/h
397 12-04-2010 07:23:02 5.8 C 4.8 g/m*3 5.8 C 0 km/h
398 12-04-2010 07:35:03 5.9 C 4.83 g/m*3 5.9 C 0 km/h
399 12-04-2010 07:47:02 5.9 C 4.83 g/m*3 5.9 C 0 km/h
400 12-04-2010 07:59:02 6.1 C 4.82 g/m*3 6.1 C 0 km/h
Sensor: Nr:Datum:Temp:Abs-Feuchte:Windchill:Wind:
Aussen-T/F 401 12-04-2010 08:11:01 6.3 C 4.81 g/m*3 6.3 C 0 km/h
402 12-04-2010 08:23:02 6.4 C 4.92 g/m*3 6.4 C 0 km/h
403 12-04-2010 08:35:02 6.7 C 4.94 g/m*3 6.7 C 0 km/h
404 12-04-2010 08:47:02 7 C 4.88 g/m*3 7 C 0 km/h
405 12-04-2010 08:59:02 7.4 C 4.93 g/m*3 7.4 C 0 km/h
406 12-04-2010 09:11:02 7.5 C 4.96 g/m*3 7.5 C 0 km/h
407 12-04-2010 09:23:02 7.4 C 5.01 g/m*3 7.4 C 0 km/h
408 12-04-2010 09:35:02 7.3 C 5.06 g/m*3 7.3 C 0 km/h
409 12-04-2010 09:47:02 7.5 C 5.12 g/m*3 7.5 C 0 km/h
410 12-04-2010 09:59:02 7.4 C 5.09 g/m*3 7.4 C 0 km/h
411 12-04-2010 10:11:02 7.5 C 5.04 g/m*3 7.5 C 0 km/h
412 12-04-2010 10:23:02 7.6 C 5.16 g/m*3 7.6 C 0 km/h
413 12-04-2010 10:35:02 7.8 C 5.22 g/m*3 7.8 C 0 km/h
414 12-04-2010 10:47:01 7.9 C 5.26 g/m*3 7.9 C 0 km/h
415 12-04-2010 10:59:01 8.3 C 5.23 g/m*3 8.3 C 0 km/h
416 12-04-2010 11:11:01 9 C 5.2 g/m*3 9 C 0 km/h
417 12-04-2010 11:23:01 9.6 C 5.04 g/m*3 9.6 C 0 km/h
418 12-04-2010 11:35:01 9.3 C 5.03 g/m*3 9.3 C 0 km/h
419 12-04-2010 11:47:02 10.5 C 4.85 g/m*3 10.5 C 0 km/h
420 12-04-2010 11:59:02 10.7 C 4.91 g/m*3 10.7 C 0 km/h
421 12-04-2010 12:11:02 10.5 C 4.95 g/m*3 10.5 C 0 km/h
422 12-04-2010 12:23:03 9.9 C 4.95 g/m*3 9.9 C 0 km/h
423 12-04-2010 12:35:02 9.6 C 5.5 g/m*3 9.6 C 0 km/h
424 12-04-2010 12:47:03 10.2 C 5.61 g/m*3 10.2 C 0 km/h
425 12-04-2010 12:59:03 11.8 C 5.58 g/m*3 11.8 C 0 km/h
Sensor: Nr:Datum:Temp:Abs-Feuchte:Windchill:Wind:
Aussen-T/F 426 12-04-2010 13:11:02 11.7 C 4.92 g/m*3 11.7 C 0 km/h
427 12-04-2010 13:23:02 11.5 C 4.85 g/m*3 11.5 C 0 km/h
428 12-04-2010 13:35:02 11.8 C 4.74 g/m*3 11.8 C 0 km/h
429 12-04-2010 13:47:02 11.5 C 4.65 g/m*3 11.5 C 0 km/h
430 12-04-2010 13:59:02 12 C 4.58 g/m*3 12 C 0 km/h
431 12-04-2010 14:11:02 11.7 C 4.5 g/m*3 11.7 C 0 km/h
432 12-04-2010 14:23:02 9.4 C 5.43 g/m*3 9.4 C 0 km/h
433 12-04-2010 14:35:01 8.2 C 5.78 g/m*3 8.2 C 0 km/h
434 12-04-2010 14:47:02 7.8 C 6.12 g/m*3 7.8 C 0 km/h
435 12-04-2010 14:59:02 8 C 6.37 g/m*3 8 C 0 km/h
436 12-04-2010 15:11:01 8.7 C 6.4 g/m*3 8.7 C 0 km/h
437 12-04-2010 15:23:02 9.2 C 6.34 g/m*3 9.2 C 0 km/h
438 12-04-2010 15:35:02 9.4 C 6.15 g/m*3 9.4 C 0 km/h
439 12-04-2010 15:47:02 9.3 C 5.75 g/m*3 9.3 C 0 km/h
440 12-04-2010 15:59:03 9.2 C 5.71 g/m*3 9.2 C 0 km/h
441 12-04-2010 16:11:02 9.3 C 5.84 g/m*3 9.3 C 0 km/h
442 12-04-2010 16:23:02 9.4 C 5.79 g/m*3 9.4 C 0 km/h
443 12-04-2010 16:35:02 9.4 C 5.61 g/m*3 9.4 C 0 km/h
444 12-04-2010 16:47:02 9.3 C 5.66 g/m*3 9.3 C 0 km/h
445 12-04-2010 16:59:02 9.3 C 5.57 g/m*3 9.3 C 0 km/h
446 12-04-2010 17:11:01 9.3 C 5.48 g/m*3 9.3 C 0 km/h
447 12-04-2010 17:23:01 9.3 C 5.57 g/m*3 9.3 C 0 km/h
448 12-04-2010 17:35:02 8.9 C 5.78 g/m*3 8.9 C 0 km/h
449 12-04-2010 17:47:02 8.5 C 5.89 g/m*3 8.5 C 0 km/h
450 12-04-2010 17:59:02 8.3 C 5.98 g/m*3 8.3 C 0 km/h
Sensor: Nr:Datum:Temp:Abs-Feuchte:Windchill:Wind:
Aussen-T/F 451 12-04-2010 18:11:02 8.1 C 5.99 g/m*3 8.1 C 0 km/h
452 12-04-2010 18:23:02 8 C 6.04 g/m*3 8 C 0 km/h
453 12-04-2010 18:35:02 8.1 C 6.07 g/m*3 8.1 C 0 km/h
454 12-04-2010 18:47:02 8.1 C 5.99 g/m*3 8.1 C 0 km/h
455 12-04-2010 18:59:02 8.1 C 5.99 g/m*3 8.1 C 0 km/h
456 12-04-2010 19:11:03 8 C 6.04 g/m*3 8 C 0 km/h
457 12-04-2010 19:23:02 7.8 C 6.28 g/m*3 7.8 C 0 km/h
458 12-04-2010 19:35:02 7.5 C 6.32 g/m*3 7.5 C 0 km/h
459 12-04-2010 19:47:01 7.3 C 6.4 g/m*3 7.3 C 0 km/h
460 12-04-2010 19:59:01 7.3 C 6.48 g/m*3 7.3 C 0 km/h
461 12-04-2010 20:11:02 7.4 C 6.6 g/m*3 7.4 C 0 km/h
462 12-04-2010 20:23:01 7.3 C 6.64 g/m*3 7.3 C 0 km/h
463 12-04-2010 20:35:01 7.3 C 6.64 g/m*3 7.3 C 0 km/h
464 12-04-2010 20:47:01 7.3 C 6.64 g/m*3 7.3 C 0 km/h
465 12-04-2010 20:59:01 7.1 C 6.55 g/m*3 7.1 C 0 km/h
466 12-04-2010 21:11:02 7.2 C 6.67 g/m*3 7.2 C 0 km/h
467 12-04-2010 21:23:01 7.3 C 6.72 g/m*3 7.3 C 0 km/h
468 12-04-2010 21:35:02 7.3 C 6.72 g/m*3 7.3 C 0 km/h
469 12-04-2010 21:47:01 7.3 C 6.72 g/m*3 7.3 C 0 km/h
470 12-04-2010 21:59:01 7.4 C 6.68 g/m*3 7.4 C 0 km/h
471 12-04-2010 22:11:02 7.4 C 6.68 g/m*3 7.4 C 0 km/h
472 12-04-2010 22:24:04 7.3 C 6.64 g/m*3 7.3 C 0 km/h
473 12-04-2010 22:36:04 7.1 C 6.55 g/m*3 7.1 C 0 km/h
474 12-04-2010 22:48:04 6.8 C 6.42 g/m*3 6.8 C 0 km/h
475 12-04-2010 23:00:04 6.9 C 6.54 g/m*3 6.9 C 0 km/h
Sensor: Nr:Datum:Temp:Abs-Feuchte:Windchill:Wind:
Aussen-T/F 476 12-04-2010 23:12:04 7 C 6.51 g/m*3 7 C 0 km/h
477 12-04-2010 23:24:04 7.2 C 6.59 g/m*3 7.2 C 0 km/h
478 12-04-2010 23:36:04 7.1 C 6.47 g/m*3 7.1 C 0 km/h
479 12-04-2010 23:48:04 7 C 6.35 g/m*3 7 C 0 km/h
480 13-04-2010 00:00:04 7.1 C 6.4 g/m*3 7.1 C 0 km/h
481 13-04-2010 00:12:04 7.2 C 6.36 g/m*3 7.2 C 0 km/h
482 13-04-2010 00:24:04 7.2 C 6.36 g/m*3 7.2 C 0 km/h
483 13-04-2010 00:36:04 7.2 C 6.36 g/m*3 7.2 C 0 km/h
484 13-04-2010 00:48:04 7.3 C 6.4 g/m*3 7.3 C 0 km/h
485 13-04-2010 01:00:04 7.3 C 6.4 g/m*3 7.3 C 0 km/h
486 13-04-2010 01:12:04 7 C 6.35 g/m*3 7 C 0 km/h
487 13-04-2010 01:24:04 6.9 C 6.54 g/m*3 6.9 C 0 km/h
488 13-04-2010 01:36:04 6.8 C 6.65 g/m*3 6.8 C 0 km/h
489 13-04-2010 01:48:04 6.9 C 6.77 g/m*3 6.9 C 0 km/h
490 13-04-2010 02:00:04 6.8 C 6.81 g/m*3 6.8 C 0 km/h
491 13-04-2010 02:12:05 6.9 C 6.93 g/m*3 6.9 C 0 km/h
492 13-04-2010 02:24:05 6.9 C 7.01 g/m*3 6.9 C 0 km/h
493 13-04-2010 02:36:05 6.9 C 7.08 g/m*3 6.9 C 0 km/h
494 13-04-2010 02:48:05 6.9 C 7.08 g/m*3 6.9 C 0 km/h
495 13-04-2010 03:00:05 6.9 C 7.08 g/m*3 6.9 C 0 km/h
496 13-04-2010 03:12:05 7 C 7.05 g/m*3 7 C 0 km/h
497 13-04-2010 03:24:05 7 C 7.13 g/m*3 7 C 0 km/h
498 13-04-2010 03:36:05 6.9 C 7.08 g/m*3 6.9 C 0 km/h
499 13-04-2010 03:48:05 6.9 C 7.08 g/m*3 6.9 C 0 km/h
500 13-04-2010 04:00:05 6.9 C 7.08 g/m*3 6.9 C 0 km/h
Sensor: Nr:Datum:Temp:Abs-Feuchte:Windchill:Wind:
Aussen-T/F 501 13-04-2010 04:12:05 6.9 C 7.16 g/m*3 6.9 C 0 km/h
502 13-04-2010 04:24:05 6.9 C 7.16 g/m*3 6.9 C 0 km/h
503 13-04-2010 04:36:05 6.9 C 7.16 g/m*3 6.9 C 0 km/h
504 13-04-2010 04:48:05 6.8 C 7.11 g/m*3 6.8 C 0 km/h
505 13-04-2010 05:00:05 6.9 C 7.16 g/m*3 6.9 C 0 km/h
506 13-04-2010 05:12:05 7 C 7.21 g/m*3 7 C 0 km/h
507 13-04-2010 05:24:05 7 C 7.21 g/m*3 7 C 0 km/h
508 13-04-2010 05:36:05 6.9 C 7.16 g/m*3 6.9 C 0 km/h
509 13-04-2010 05:48:05 6.9 C 7.16 g/m*3 6.9 C 0 km/h
510 13-04-2010 06:00:05 7 C 7.13 g/m*3 7 C 0 km/h
511 13-04-2010 06:12:05 6.9 C 7.16 g/m*3 6.9 C 0 km/h
512 13-04-2010 06:24:05 7 C 7.05 g/m*3 7 C 0 km/h
513 13-04-2010 06:36:06 7 C 7.05 g/m*3 7 C 0 km/h
514 13-04-2010 06:48:06 7 C 6.97 g/m*3 7 C 0 km/h
515 13-04-2010 07:00:06 7 C 6.9 g/m*3 7 C 0 km/h
516 13-04-2010 07:12:03 6.8 C 6.81 g/m*3 6.8 C 0 km/h
517 13-04-2010 07:24:03 6.6 C 6.64 g/m*3 6.6 C 0 km/h
518 13-04-2010 07:36:03 6.5 C 6.6 g/m*3 6.5 C 0 km/h
519 13-04-2010 07:48:02 6.5 C 6.6 g/m*3 6.5 C 0 km/h
520 13-04-2010 08:00:02 6.6 C 6.57 g/m*3 6.6 C 0 km/h
521 13-04-2010 08:12:02 6.7 C 6.61 g/m*3 6.7 C 0 km/h
522 13-04-2010 08:24:02 7 C 6.66 g/m*3 7 C 0 km/h
523 13-04-2010 08:36:02 7.3 C 6.64 g/m*3 7.3 C 0 km/h
524 13-04-2010 08:48:02 7.5 C 6.64 g/m*3 7.5 C 0 km/h
525 13-04-2010 09:00:02 7.8 C 6.61 g/m*3 7.8 C 0 km/h
Sensor: Nr:Datum:Temp:Abs-Feuchte:Windchill:Wind:
Aussen-T/F 526 13-04-2010 09:12:02 8.1 C 6.49 g/m*3 8.1 C 0 km/h
527 13-04-2010 09:24:03 8.2 C 6.53 g/m*3 8.2 C 0 km/h
528 13-04-2010 09:36:02 8.6 C 6.62 g/m*3 8.6 C 0 km/h
529 13-04-2010 09:48:02 9 C 6.61 g/m*3 9 C 0 km/h
530 13-04-2010 10:00:02 9.4 C 6.69 g/m*3 9.4 C 0 km/h
531 13-04-2010 10:12:02 10.2 C 6.28 g/m*3 10.2 C 0 km/h
532 13-04-2010 10:24:02 10.7 C 6.38 g/m*3 10.7 C 0 km/h
533 13-04-2010 10:36:02 11.2 C 6.18 g/m*3 11.2 C 0 km/h
534 13-04-2010 10:48:01 11.7 C 6.28 g/m*3 11.7 C 0 km/h
535 13-04-2010 11:00:01 12.2 C 6.15 g/m*3 12.2 C 0 km/h
536 13-04-2010 11:12:02 13.2 C 6.32 g/m*3 13.2 C 0 km/h
537 13-04-2010 11:24:02 13.8 C 6.2 g/m*3 13.8 C 0 km/h
538 13-04-2010 11:36:02 14.1 C 5.58 g/m*3 14.1 C 0 km/h
539 13-04-2010 11:48:02 15 C 5.39 g/m*3 15 C 0 km/h
540 13-04-2010 12:00:02 15 C 4.74 g/m*3 15 C 0 km/h
541 13-04-2010 12:12:02 15 C 4.62 g/m*3 15 C 0 km/h
542 13-04-2010 12:24:02 15.8 C 4.85 g/m*3 15.8 C 0 km/h
543 13-04-2010 12:36:01 15.7 C 4.55 g/m*3 15.7 C 0 km/h
544 13-04-2010 12:48:02 15.3 C 4.57 g/m*3 15.3 C 0 km/h
545 13-04-2010 13:00:02 16.6 C 4.8 g/m*3 16.6 C 0 km/h
546 13-04-2010 13:12:01 16.4 C 4.61 g/m*3 16.4 C 0 km/h
547 13-04-2010 13:24:01 16.8 C 4.43 g/m*3 16.8 C 0 km/h
548 13-04-2010 13:36:02 17.5 C 4.32 g/m*3 17.5 C 0 km/h
549 13-04-2010 13:48:02 17.8 C 4.1 g/m*3 17.8 C 0 km/h
550 13-04-2010 14:00:02 17.6 C 3.9 g/m*3 17.6 C 0 km/h
Sensor: Nr:Datum:Temp:Abs-Feuchte:Windchill:Wind:
Aussen-T/F 551 13-04-2010 14:12:02 17.9 C 3.97 g/m*3 17.9 C 0 km/h
552 13-04-2010 14:24:02 17.7 C 3.92 g/m*3 17.7 C 0 km/h
553 13-04-2010 14:36:02 17.5 C 4.03 g/m*3 17.5 C 0 km/h
554 13-04-2010 14:48:02 17.8 C 3.95 g/m*3 17.8 C 0 km/h
555 13-04-2010 15:00:02 17.9 C 4.12 g/m*3 17.9 C 0 km/h
556 13-04-2010 15:12:01 17.8 C 3.79 g/m*3 17.8 C 0 km/h
557 13-04-2010 15:24:01 17.1 C 4.08 g/m*3 17.1 C 0 km/h
558 13-04-2010 15:36:02 17.5 C 4.17 g/m*3 17.5 C 0 km/h
559 13-04-2010 15:48:02 19.1 C 4.1 g/m*3 19.1 C 0 km/h
560 13-04-2010 16:00:02 19.7 C 3.74 g/m*3 19.7 C 0 km/h
561 13-04-2010 16:12:02 19.5 C 3.52 g/m*3 19.5 C 0 km/h
562 13-04-2010 16:24:01 18.6 C 3.34 g/m*3 18.6 C 0 km/h
563 13-04-2010 16:36:02 18.2 C 3.42 g/m*3 18.2 C 0 km/h
564 13-04-2010 16:48:02 18.8 C 3.7 g/m*3 18.8 C 0 km/h
565 13-04-2010 17:00:02 18.9 C 3.73 g/m*3 18.9 C 0 km/h
566 13-04-2010 17:12:02 18.8 C 3.87 g/m*3 18.8 C 0 km/h
567 13-04-2010 17:24:02 19 C 3.59 g/m*3 19 C 0 km/h
568 13-04-2010 17:36:02 18.6 C 3.82 g/m*3 18.6 C 0 km/h
569 13-04-2010 17:48:02 18.1 C 3.86 g/m*3 18.1 C 0 km/h
570 13-04-2010 18:00:02 17.5 C 3.73 g/m*3 17.5 C 0 km/h
571 13-04-2010 18:12:02 17.3 C 3.83 g/m*3 17.3 C 0 km/h
572 13-04-2010 18:24:02 17.1 C 3.78 g/m*3 17.1 C 0 km/h
573 13-04-2010 18:36:02 16.7 C 3.84 g/m*3 16.7 C 0 km/h
574 13-04-2010 18:48:02 16.3 C 4.16 g/m*3 16.3 C 0 km/h
575 13-04-2010 19:00:02 16 C 4.36 g/m*3 16 C 0 km/h
Sensor: Nr:Datum:Temp:Abs-Feuchte:Windchill:Wind:
Aussen-T/F 576 13-04-2010 19:12:02 15.7 C 4.28 g/m*3 15.7 C 0 km/h
577 13-04-2010 19:24:02 15.4 C 4.47 g/m*3 15.4 C 0 km/h
578 13-04-2010 19:36:02 15.1 C 4.52 g/m*3 15.1 C 0 km/h
579 13-04-2010 19:48:01 14.8 C 4.69 g/m*3 14.8 C 0 km/h
580 13-04-2010 20:00:01 14.6 C 4.76 g/m*3 14.6 C 0 km/h
581 13-04-2010 20:12:02 14.5 C 4.85 g/m*3 14.5 C 0 km/h
582 13-04-2010 20:24:02 14.3 C 4.91 g/m*3 14.3 C 0 km/h
583 13-04-2010 20:36:02 14.1 C 5.1 g/m*3 14.1 C 0 km/h
584 13-04-2010 20:48:01 13.9 C 5.15 g/m*3 13.9 C 0 km/h
585 13-04-2010 21:00:01 13.6 C 5.18 g/m*3 13.6 C 0 km/h
586 13-04-2010 21:12:02 13.4 C 5.11 g/m*3 13.4 C 0 km/h
587 13-04-2010 21:24:02 13.3 C 4.97 g/m*3 13.3 C 0 km/h
588 13-04-2010 21:36:02 13.2 C 4.94 g/m*3 13.2 C 0 km/h
589 13-04-2010 21:48:02 12.8 C 5.04 g/m*3 12.8 C 0 km/h
590 13-04-2010 22:00:02 12.5 C 5.06 g/m*3 12.5 C 0 km/h
591 13-04-2010 22:12:02 12.3 C 5.1 g/m*3 12.3 C 0 km/h
592 13-04-2010 22:24:02 12.1 C 5.04 g/m*3 12.1 C 0 km/h
593 13-04-2010 22:36:02 11.9 C 5.08 g/m*3 11.9 C 0 km/h
594 13-04-2010 22:48:02 11.9 C 5.08 g/m*3 11.9 C 0 km/h
595 13-04-2010 23:00:02 11.8 C 5.05 g/m*3 11.8 C 0 km/h
596 13-04-2010 23:12:02 11.8 C 5.16 g/m*3 11.8 C 0 km/h
597 13-04-2010 23:24:02 11.8 C 5.26 g/m*3 11.8 C 0 km/h
598 13-04-2010 23:36:02 11.6 C 5.2 g/m*3 11.6 C 0 km/h
599 13-04-2010 23:48:02 11.7 C 5.33 g/m*3 11.7 C 0 km/h
600 14-04-2010 00:00:02 11.6 C 5.2 g/m*3 11.6 C 0 km/h
Sensor: Nr:Datum:Temp:Abs-Feuchte:Windchill:Wind:
Aussen-T/F 601 14-04-2010 00:12:02 11.5 C 5.16 g/m*3 11.5 C 0 km/h
602 14-04-2010 00:24:02 11.3 C 5.2 g/m*3 11.3 C 0 km/h
603 14-04-2010 00:36:02 11.4 C 5.23 g/m*3 11.4 C 0 km/h
604 14-04-2010 00:48:02 11.2 C 5.17 g/m*3 11.2 C 0 km/h
605 14-04-2010 01:00:02 11.1 C 5.14 g/m*3 11.1 C 0 km/h
606 14-04-2010 01:12:02 11 C 5.2 g/m*3 11 C 0 km/h
607 14-04-2010 01:24:03 11 C 5 g/m*3 11 C 0 km/h
608 14-04-2010 01:36:02 10.9 C 5.17 g/m*3 10.9 C 0 km/h
609 14-04-2010 01:48:03 10.9 C 5.07 g/m*3 10.9 C 0 km/h
610 14-04-2010 02:00:03 10.7 C 5.01 g/m*3 10.7 C 0 km/h
611 14-04-2010 02:12:02 10.7 C 5.01 g/m*3 10.7 C 0 km/h
612 14-04-2010 02:24:03 10.6 C 5.08 g/m*3 10.6 C 0 km/h
613 14-04-2010 02:36:02 10.4 C 5.11 g/m*3 10.4 C 0 km/h
614 14-04-2010 02:48:02 10.1 C 5.01 g/m*3 10.1 C 0 km/h
615 14-04-2010 03:00:02 9.8 C 5.1 g/m*3 9.8 C 0 km/h
616 14-04-2010 03:12:01 9.5 C 5.01 g/m*3 9.5 C 0 km/h
617 14-04-2010 03:24:01 9.3 C 5.03 g/m*3 9.3 C 0 km/h
618 14-04-2010 03:36:01 9 C 5.03 g/m*3 9 C 0 km/h
619 14-04-2010 03:48:01 8.8 C 5.05 g/m*3 8.8 C 0 km/h
620 14-04-2010 04:00:01 8.8 C 5.14 g/m*3 8.8 C 0 km/h
621 14-04-2010 04:12:01 8.5 C 5.12 g/m*3 8.5 C 0 km/h
622 14-04-2010 04:24:02 8.3 C 5.23 g/m*3 8.3 C 0 km/h
623 14-04-2010 04:36:01 8.3 C 5.23 g/m*3 8.3 C 0 km/h
624 14-04-2010 04:48:01 8.4 C 5.26 g/m*3 8.4 C 0 km/h
625 14-04-2010 05:00:01 8.5 C 5.29 g/m*3 8.5 C 0 km/h
Sensor: Nr:Datum:Temp:Abs-Feuchte:Windchill:Wind:
Aussen-T/F 626 14-04-2010 05:12:01 8.4 C 5.34 g/m*3 8.4 C 0 km/h
627 14-04-2010 05:24:02 8.3 C 5.31 g/m*3 8.3 C 0 km/h
628 14-04-2010 05:36:01 8.1 C 5.33 g/m*3 8.1 C 0 km/h
629 14-04-2010 05:48:02 7.8 C 5.3 g/m*3 7.8 C 0 km/h
630 14-04-2010 06:00:02 7.8 C 5.3 g/m*3 7.8 C 0 km/h
631 14-04-2010 06:12:01 7.9 C 5.26 g/m*3 7.9 C 0 km/h
632 14-04-2010 06:24:02 7.7 C 5.11 g/m*3 7.7 C 0 km/h
633 14-04-2010 06:36:01 7.4 C 5.01 g/m*3 7.4 C 0 km/h
634 14-04-2010 06:48:02 7.1 C 4.99 g/m*3 7.1 C 0 km/h
635 14-04-2010 07:00:02 7 C 4.96 g/m*3 7 C 0 km/h
636 14-04-2010 07:12:01 6.9 C 5 g/m*3 6.9 C 0 km/h
637 14-04-2010 07:24:01 6.8 C 5.05 g/m*3 6.8 C 0 km/h
638 14-04-2010 07:36:02 7.2 C 5.18 g/m*3 7.2 C 0 km/h
639 14-04-2010 07:48:01 7.5 C 5.2 g/m*3 7.5 C 0 km/h
640 14-04-2010 08:00:01 7.5 C 5.2 g/m*3 7.5 C 0 km/h
641 14-04-2010 08:12:01 7.6 C 5.32 g/m*3 7.6 C 0 km/h
642 14-04-2010 08:24:01 7.8 C 5.39 g/m*3 7.8 C 0 km/h
643 14-04-2010 08:36:02 8 C 5.21 g/m*3 8 C 0 km/h
644 14-04-2010 08:48:02 8.2 C 5.11 g/m*3 8.2 C 0 km/h
645 14-04-2010 09:00:02 8.4 C 5.17 g/m*3 8.4 C 0 km/h
646 14-04-2010 09:12:01 8.4 C 5.09 g/m*3 8.4 C 0 km/h
647 14-04-2010 09:24:01 8.6 C 5.16 g/m*3 8.6 C 0 km/h
648 14-04-2010 09:36:02 9.1 C 5.15 g/m*3 9.1 C 0 km/h
649 14-04-2010 09:48:01 9.5 C 5.19 g/m*3 9.5 C 0 km/h
650 14-04-2010 10:00:01 9.9 C 5.14 g/m*3 9.9 C 0 km/h
Sensor: Nr:Datum:Temp:Abs-Feuchte:Windchill:Wind:
Aussen-T/F 651 14-04-2010 10:12:01 10.5 C 5.14 g/m*3 10.5 C 0 km/h
652 14-04-2010 10:24:01 11 C 5 g/m*3 11 C 0 km/h
653 14-04-2010 10:36:02 11.5 C 5.16 g/m*3 11.5 C 0 km/h
654 14-04-2010 10:48:01 11.7 C 4.81 g/m*3 11.7 C 0 km/h
655 14-04-2010 11:00:01 11.9 C 4.87 g/m*3 11.9 C 0 km/h
656 14-04-2010 11:12:02 12.8 C 4.93 g/m*3 12.8 C 0 km/h
657 14-04-2010 11:24:01 13.1 C 4.68 g/m*3 13.1 C 0 km/h
658 14-04-2010 11:36:01 13.5 C 4.91 g/m*3 13.5 C 0 km/h
659 14-04-2010 11:48:01 14.1 C 4.85 g/m*3 14.1 C 0 km/h
660 14-04-2010 12:00:01 13.8 C 4.65 g/m*3 13.8 C 0 km/h
661 14-04-2010 12:12:02 13.4 C 4.65 g/m*3 13.4 C 0 km/h
662 14-04-2010 12:24:01 13.6 C 4.59 g/m*3 13.6 C 0 km/h
663 14-04-2010 12:36:01 13.7 C 4.74 g/m*3 13.7 C 0 km/h
664 14-04-2010 12:48:01 14.9 C 4.72 g/m*3 14.9 C 0 km/h
665 14-04-2010 13:00:01 14.4 C 4.33 g/m*3 14.4 C 0 km/h
666 14-04-2010 13:12:02 14.5 C 3.98 g/m*3 14.5 C 0 km/h
667 14-04-2010 13:24:01 13.5 C 4.09 g/m*3 13.5 C 0 km/h
668 14-04-2010 13:36:01 14.4 C 3.96 g/m*3 14.4 C 0 km/h
669 14-04-2010 13:48:01 14.3 C 3.81 g/m*3 14.3 C 0 km/h
670 14-04-2010 14:00:01 13.7 C 4.03 g/m*3 13.7 C 0 km/h
671 14-04-2010 14:12:01 14.5 C 3.86 g/m*3 14.5 C 0 km/h
672 14-04-2010 14:24:01 14 C 3.74 g/m*3 14 C 0 km/h
673 14-04-2010 14:36:01 13.5 C 3.98 g/m*3 13.5 C 0 km/h
674 14-04-2010 14:48:01 13.7 C 4.14 g/m*3 13.7 C 0 km/h
675 14-04-2010 15:00:01 14.3 C 3.69 g/m*3 14.3 C 0 km/h
Sensor: Nr:Datum:Temp:Abs-Feuchte:Windchill:Wind:
Aussen-T/F 676 14-04-2010 15:12:01 15.8 C 3.37 g/m*3 15.8 C 0 km/h
677 14-04-2010 15:24:02 15.1 C 2.58 g/m*3 15.1 C 0 km/h
678 14-04-2010 15:36:01 14.8 C 2.53 g/m*3 14.8 C 0 km/h
679 14-04-2010 15:48:02 14.4 C 2.47 g/m*3 14.4 C 0 km/h
680 14-04-2010 16:00:02 16 C 4.22 g/m*3 16 C 0 km/h
681 14-04-2010 16:12:01 16.2 C 3.45 g/m*3 16.2 C 0 km/h
682 14-04-2010 16:24:02 16.3 C 2.77 g/m*3 16.3 C 0 km/h
683 14-04-2010 16:36:01 18.5 C 3.16 g/m*3 18.5 C 0 km/h
684 14-04-2010 16:48:02 17.2 C 2.93 g/m*3 17.2 C 0 km/h
685 14-04-2010 17:00:02 16.3 C 2.77 g/m*3 16.3 C 0 km/h
686 14-04-2010 17:12:01 17.2 C 2.93 g/m*3 17.2 C 0 km/h
687 14-04-2010 17:24:01 18.1 C 3.09 g/m*3 18.1 C 0 km/h
688 14-04-2010 17:36:01 17.2 C 2.93 g/m*3 17.2 C 0 km/h
689 14-04-2010 17:48:02 16.7 C 2.84 g/m*3 16.7 C 0 km/h
690 14-04-2010 18:00:02 16.8 C 2.86 g/m*3 16.8 C 0 km/h
691 14-04-2010 18:12:01 18.1 C 3.09 g/m*3 18.1 C 0 km/h
692 14-04-2010 18:24:01 18.9 C 3.24 g/m*3 18.9 C 0 km/h
693 14-04-2010 18:36:02 17.3 C 2.95 g/m*3 17.3 C 0 km/h
694 14-04-2010 18:48:02 15.6 C 2.66 g/m*3 15.6 C 0 km/h
695 14-04-2010 19:00:02 15.8 C 2.96 g/m*3 15.8 C 0 km/h
696 14-04-2010 19:12:01 15.3 C 2.74 g/m*3 15.3 C 0 km/h
697 14-04-2010 19:24:01 14.7 C 3.15 g/m*3 14.7 C 0 km/h
698 14-04-2010 19:36:02 14.3 C 3.07 g/m*3 14.3 C 0 km/h
699 14-04-2010 19:48:01 14 C 3.26 g/m*3 14 C 0 km/h
700 14-04-2010 20:00:01 13.6 C 3.41 g/m*3 13.6 C 0 km/h
Sensor: Nr:Datum:Temp:Abs-Feuchte:Windchill:Wind:
Aussen-T/F 701 14-04-2010 20:12:02 13.1 C 3.65 g/m*3 13.1 C 0 km/h
702 14-04-2010 20:24:01 13 C 3.74 g/m*3 13 C 0 km/h
703 14-04-2010 20:36:02 12.7 C 3.9 g/m*3 12.7 C 0 km/h
704 14-04-2010 20:48:01 12.4 C 4.04 g/m*3 12.4 C 0 km/h
705 14-04-2010 21:00:01 11.7 C 3.97 g/m*3 11.7 C 0 km/h
706 14-04-2010 21:12:02 11.2 C 4.05 g/m*3 11.2 C 0 km/h
707 14-04-2010 21:24:01 10.7 C 4.03 g/m*3 10.7 C 0 km/h
708 14-04-2010 21:36:01 10.5 C 4.07 g/m*3 10.5 C 0 km/h
709 14-04-2010 21:48:01 10.3 C 4.12 g/m*3 10.3 C 0 km/h
710 14-04-2010 22:00:01 10.3 C 4.21 g/m*3 10.3 C 0 km/h
711 14-04-2010 22:12:02 10.4 C 4.34 g/m*3 10.4 C 0 km/h
712 14-04-2010 22:24:01 10.8 C 4.45 g/m*3 10.8 C 0 km/h
713 14-04-2010 22:36:01 11 C 4.6 g/m*3 11 C 0 km/h
714 14-04-2010 22:48:01 11 C 4.7 g/m*3 11 C 0 km/h
715 14-04-2010 23:00:01 10.9 C 4.97 g/m*3 10.9 C 0 km/h
716 14-04-2010 23:12:01 10.8 C 4.94 g/m*3 10.8 C 0 km/h
717 14-04-2010 23:24:01 10.8 C 5.04 g/m*3 10.8 C 0 km/h
718 14-04-2010 23:36:01 10.6 C 4.98 g/m*3 10.6 C 0 km/h
719 14-04-2010 23:48:01 10.5 C 5.04 g/m*3 10.5 C 0 km/h
720 15-04-2010 00:00:01 10.3 C 5.08 g/m*3 10.3 C 0 km/h
721 15-04-2010 00:12:01 10.2 C 5.14 g/m*3 10.2 C 0 km/h
722 15-04-2010 00:24:02 10.1 C 5.11 g/m*3 10.1 C 0 km/h
723 15-04-2010 00:36:01 10.1 C 5.2 g/m*3 10.1 C 0 km/h
724 15-04-2010 00:48:01 10.1 C 5.2 g/m*3 10.1 C 0 km/h
725 15-04-2010 01:00:01 10.1 C 5.2 g/m*3 10.1 C 0 km/h
Sensor: Nr:Datum:Temp:Abs-Feuchte:Windchill:Wind:
Aussen-T/F 726 15-04-2010 01:12:01 10.1 C 5.3 g/m*3 10.1 C 0 km/h
727 15-04-2010 01:24:02 10.1 C 5.3 g/m*3 10.1 C 0 km/h
728 15-04-2010 01:36:01 10.1 C 5.3 g/m*3 10.1 C 0 km/h
729 15-04-2010 01:48:02 10 C 5.26 g/m*3 10 C 0 km/h
730 15-04-2010 02:00:02 9.9 C 5.32 g/m*3 9.9 C 0 km/h
731 15-04-2010 02:12:01 9.8 C 5.38 g/m*3 9.8 C 0 km/h
732 15-04-2010 02:24:02 9.8 C 5.38 g/m*3 9.8 C 0 km/h
733 15-04-2010 02:36:01 9.7 C 5.35 g/m*3 9.7 C 0 km/h
734 15-04-2010 02:49:07 9.7 C 5.44 g/m*3 9.7 C 0 km/h
735 15-04-2010 03:01:07 9.6 C 5.4 g/m*3 9.6 C 0 km/h
736 15-04-2010 03:13:06 9.5 C 5.37 g/m*3 9.5 C 0 km/h
737 15-04-2010 03:25:06 9.5 C 5.37 g/m*3 9.5 C 0 km/h
738 15-04-2010 03:37:01 9.4 C 5.34 g/m*3 9.4 C 0 km/h
739 15-04-2010 03:49:01 9.3 C 5.3 g/m*3 9.3 C 0 km/h
740 15-04-2010 04:01:01 9.1 C 5.32 g/m*3 9.1 C 0 km/h
741 15-04-2010 04:13:01 8.7 C 5.28 g/m*3 8.7 C 0 km/h
742 15-04-2010 04:25:02 8.4 C 5.34 g/m*3 8.4 C 0 km/h
743 15-04-2010 04:37:01 8.4 C 5.34 g/m*3 8.4 C 0 km/h
744 15-04-2010 04:49:01 8.7 C 5.36 g/m*3 8.7 C 0 km/h
745 15-04-2010 05:01:01 8.8 C 5.4 g/m*3 8.8 C 0 km/h
746 15-04-2010 05:13:01 8.9 C 5.43 g/m*3 8.9 C 0 km/h
747 15-04-2010 05:25:02 9 C 5.38 g/m*3 9 C 0 km/h
748 15-04-2010 05:37:01 9 C 5.38 g/m*3 9 C 0 km/h
749 15-04-2010 05:49:03 8.9 C 5.43 g/m*3 8.9 C 0 km/h
750 15-04-2010 06:01:02 8.9 C 5.43 g/m*3 8.9 C 0 km/h
Sensor: Nr:Datum:Temp:Abs-Feuchte:Windchill:Wind:
Aussen-T/F 751 15-04-2010 06:13:02 8.9 C 5.43 g/m*3 8.9 C 0 km/h
752 15-04-2010 06:25:02 8.6 C 5.41 g/m*3 8.6 C 0 km/h
753 15-04-2010 06:37:02 8 C 5.29 g/m*3 8 C 0 km/h
754 15-04-2010 06:49:02 7.6 C 5.4 g/m*3 7.6 C 0 km/h
755 15-04-2010 07:01:02 7.3 C 5.37 g/m*3 7.3 C 0 km/h
756 15-04-2010 07:13:02 7.3 C 5.45 g/m*3 7.3 C 0 km/h
757 15-04-2010 07:25:02 7.1 C 5.38 g/m*3 7.1 C 0 km/h
758 15-04-2010 07:37:01 7.2 C 5.42 g/m*3 7.2 C 0 km/h
759 15-04-2010 07:49:02 7.5 C 5.52 g/m*3 7.5 C 0 km/h
760 15-04-2010 08:01:01 7.8 C 5.55 g/m*3 7.8 C 0 km/h
761 15-04-2010 08:13:01 8.1 C 5.49 g/m*3 8.1 C 0 km/h
762 15-04-2010 08:25:01 8.4 C 5.43 g/m*3 8.4 C 0 km/h
763 15-04-2010 08:37:02 8.8 C 5.48 g/m*3 8.8 C 0 km/h
764 15-04-2010 08:49:02 9 C 5.29 g/m*3 9 C 0 km/h
765 15-04-2010 09:01:01 9.3 C 5.39 g/m*3 9.3 C 0 km/h
766 15-04-2010 09:13:01 9.3 C 5.21 g/m*3 9.3 C 0 km/h
767 15-04-2010 09:25:02 9.8 C 5.38 g/m*3 9.8 C 0 km/h
768 15-04-2010 09:37:02 10.4 C 5.3 g/m*3 10.4 C 0 km/h
769 15-04-2010 09:49:01 10.5 C 5.14 g/m*3 10.5 C 0 km/h
770 15-04-2010 10:01:02 10.5 C 5.24 g/m*3 10.5 C 0 km/h
771 15-04-2010 10:13:02 10.4 C 5.2 g/m*3 10.4 C 0 km/h
772 15-04-2010 10:25:01 10.1 C 5.11 g/m*3 10.1 C 0 km/h
773 15-04-2010 10:37:02 9.9 C 5.04 g/m*3 9.9 C 0 km/h
774 15-04-2010 10:49:02 10.2 C 4.95 g/m*3 10.2 C 0 km/h
775 15-04-2010 11:01:02 10.5 C 4.85 g/m*3 10.5 C 0 km/h
Sensor: Nr:Datum:Temp:Abs-Feuchte:Windchill:Wind:
Aussen-T/F 776 15-04-2010 11:13:02 10.9 C 5.07 g/m*3 10.9 C 0 km/h
777 15-04-2010 11:25:02 11.7 C 5.12 g/m*3 11.7 C 0 km/h
778 15-04-2010 11:37:02 12.4 C 5.03 g/m*3 12.4 C 0 km/h
779 15-04-2010 11:49:02 13.2 C 4.82 g/m*3 13.2 C 0 km/h
780 15-04-2010 12:01:02 14.4 C 4.94 g/m*3 14.4 C 0 km/h
781 15-04-2010 12:13:02 14.7 C 4.53 g/m*3 14.7 C 0 km/h
782 15-04-2010 12:25:02 15 C 4.74 g/m*3 15 C 0 km/h
783 15-04-2010 12:37:02 15.2 C 4.54 g/m*3 15.2 C 0 km/h
784 15-04-2010 12:49:01 15.2 C 4.54 g/m*3 15.2 C 0 km/h
785 15-04-2010 13:01:02 14.8 C 4.43 g/m*3 14.8 C 0 km/h
786 15-04-2010 13:13:02 15.4 C 4.47 g/m*3 15.4 C 0 km/h
787 15-04-2010 13:25:01 14.2 C 4.27 g/m*3 14.2 C 0 km/h
788 15-04-2010 13:37:02 13.8 C 4.53 g/m*3 13.8 C 0 km/h
789 15-04-2010 13:49:02 13.6 C 4.47 g/m*3 13.6 C 0 km/h
790 15-04-2010 14:01:01 13.8 C 4.65 g/m*3 13.8 C 0 km/h
791 15-04-2010 14:13:01 14 C 4.46 g/m*3 14 C 0 km/h
792 15-04-2010 14:25:02 14.2 C 4.52 g/m*3 14.2 C 0 km/h
793 15-04-2010 14:37:02 15.3 C 4.7 g/m*3 15.3 C 0 km/h
794 15-04-2010 14:49:02 15.6 C 4.65 g/m*3 15.6 C 0 km/h
795 15-04-2010 15:01:03 16.4 C 4.75 g/m*3 16.4 C 0 km/h
796 15-04-2010 15:13:03 18.3 C 4.69 g/m*3 18.3 C 0 km/h
797 15-04-2010 15:25:02 17.8 C 4.55 g/m*3 17.8 C 0 km/h
798 15-04-2010 15:37:02 15.9 C 4.33 g/m*3 15.9 C 0 km/h
799 15-04-2010 15:49:02 16.6 C 4.66 g/m*3 16.6 C 0 km/h
800 15-04-2010 16:01:02 16.1 C 4.8 g/m*3 16.1 C 0 km/h
Sensor: Nr:Datum:Temp:Abs-Feuchte:Windchill:Wind:
Aussen-T/F 801 15-04-2010 16:13:02 15 C 4.62 g/m*3 15 C 0 km/h
802 15-04-2010 16:25:01 14.4 C 5.07 g/m*3 14.4 C 0 km/h
803 15-04-2010 16:37:02 14.3 C 4.79 g/m*3 14.3 C 0 km/h
804 15-04-2010 16:49:02 14.7 C 4.91 g/m*3 14.7 C 0 km/h
805 15-04-2010 17:01:02 15.4 C 4.86 g/m*3 15.4 C 0 km/h
806 15-04-2010 17:13:02 14.8 C 4.69 g/m*3 14.8 C 0 km/h
807 15-04-2010 17:25:02 15 C 4.74 g/m*3 15 C 0 km/h
808 15-04-2010 17:37:02 15.3 C 4.83 g/m*3 15.3 C 0 km/h
809 15-04-2010 17:49:02 15.8 C 4.85 g/m*3 15.8 C 0 km/h
810 15-04-2010 18:01:02 15.7 C 4.68 g/m*3 15.7 C 0 km/h
811 15-04-2010 18:13:02 15.7 C 4.82 g/m*3 15.7 C 0 km/h
812 15-04-2010 18:25:02 15.6 C 4.92 g/m*3 15.6 C 0 km/h
813 15-04-2010 18:37:02 15.5 C 5.02 g/m*3 15.5 C 0 km/h
814 15-04-2010 18:49:01 15.4 C 4.99 g/m*3 15.4 C 0 km/h
815 15-04-2010 19:01:02 15.4 C 4.73 g/m*3 15.4 C 0 km/h
816 15-04-2010 19:13:02 15.2 C 4.8 g/m*3 15.2 C 0 km/h
817 15-04-2010 19:25:01 15.1 C 4.9 g/m*3 15.1 C 0 km/h
818 15-04-2010 19:37:02 14.8 C 5.07 g/m*3 14.8 C 0 km/h
819 15-04-2010 19:49:01 14.4 C 4.7 g/m*3 14.4 C 0 km/h
820 15-04-2010 20:01:02 14.1 C 4.85 g/m*3 14.1 C 0 km/h
821 15-04-2010 20:13:03 13.8 C 4.89 g/m*3 13.8 C 0 km/h
822 15-04-2010 20:25:01 13.6 C 4.12 g/m*3 13.6 C 0 km/h
823 15-04-2010 20:37:02 13.3 C 3.81 g/m*3 13.3 C 0 km/h
824 15-04-2010 20:49:02 13.1 C 3.65 g/m*3 13.1 C 0 km/h
825 15-04-2010 21:01:02 12.9 C 3.61 g/m*3 12.9 C 0 km/h
Sensor: Nr:Datum:Temp:Abs-Feuchte:Windchill:Wind:
Aussen-T/F 826 15-04-2010 21:13:03 12.7 C 3.67 g/m*3 12.7 C 0 km/h
827 15-04-2010 21:25:01 12.6 C 3.87 g/m*3 12.6 C 0 km/h
828 15-04-2010 21:37:02 12.5 C 3.85 g/m*3 12.5 C 0 km/h
829 15-04-2010 21:49:02 12.4 C 3.82 g/m*3 12.4 C 0 km/h
830 15-04-2010 22:01:02 12.4 C 3.71 g/m*3 12.4 C 0 km/h
831 15-04-2010 22:13:02 12.2 C 3.78 g/m*3 12.2 C 0 km/h
832 15-04-2010 22:25:02 12.2 C 3.56 g/m*3 12.2 C 0 km/h
833 15-04-2010 22:37:02 12.1 C 3.43 g/m*3 12.1 C 0 km/h
834 15-04-2010 22:49:02 12.1 C 3.43 g/m*3 12.1 C 0 km/h
835 15-04-2010 23:01:02 11.9 C 3.71 g/m*3 11.9 C 0 km/h
836 15-04-2010 23:13:02 11.8 C 3.79 g/m*3 11.8 C 0 km/h
837 15-04-2010 23:25:02 11.6 C 3.85 g/m*3 11.6 C 0 km/h
838 15-04-2010 23:37:02 11.5 C 3.72 g/m*3 11.5 C 0 km/h
839 15-04-2010 23:49:01 11.4 C 3.7 g/m*3 11.4 C 0 km/h

Legende:
   Min
   Max


Maximal/Minimal-Werte vom 09.04.2010 - 15.04.2010

Sensor Min Max Avg
Temp
(Aussen-T/F)
4.1 °C
11-04-2010  06:10:04
19.7 °C
13-04-2010  16:00:02
10.53 °C
Abs-Feuchte
(Aussen-T/F)
2.47 g/m*3
14-04-2010  15:48:02
7.25 g/m*3
09-04-2010  00:08:02
4.92 g/m*3
Windchill
(Aussen-T/F)
4.1 C
11-04-2010  06:10:04
19.7 C
13-04-2010  16:00:02
10.51 C

Die Daten stammen von einer Davis Vantage Pro 2 Wetter-Station und werden unter Linux mit der Software wview2wettercgi und aufbereitet. Alle Angaben erfolgen ohne Gewähr für ihre Vollständigkeit oder Richtigkeit.
Kontakt: Rainer Krienke krienke@uni-koblenz.de . Meine Webseiten an der Uni Koblenz oder privat.
Version: $Revision: 0.78 $